Time;durP1;ratioP1;P1;durP2;ratioP2;P2;SDS_P1;SDS_P2;PMS_P1;PMS_P2;Temp;Humidity;BMP_temperature;BMP_pressure;BME280_temperature;BME280_humidity;BME280_pressure;Samples;Min_cycle;Max_cycle;Signal;HPM_P1;HPM_P2
2022/01/17 00:01:06;;;;;;;142.82;88.60;;;3.00;99.90;;;;;;5008695;28;20061;-51
2022/01/17 00:03:32;;;;;;;135.52;82.45;;;3.00;99.90;;;;;;5001204;28;20504;-51
2022/01/17 00:05:57;;;;;;;149.65;91.00;;;2.80;99.90;;;;;;5065430;28;20134;-50
2022/01/17 00:08:23;;;;;;;161.35;97.15;;;2.90;99.90;;;;;;4994240;28;20548;-50
2022/01/17 00:10:49;;;;;;;150.23;94.38;;;2.90;99.90;;;;;;5071760;28;20037;-50
2022/01/17 00:13:23;;;;;;;148.98;96.90;;;3.00;99.90;;;;;;5072678;28;20028;-50
2022/01/17 00:15:55;;;;;;;145.73;90.30;;;2.90;99.90;;;;;;5071899;28;20089;-50
2022/01/17 00:20:47;;;;;;;137.02;88.38;;;3.10;99.90;;;;;;5025342;28;20032;-51
2022/01/17 00:23:14;;;;;;;134.45;82.95;;;3.20;99.90;;;;;;5072306;28;20055;-50
2022/01/17 00:25:40;;;;;;;123.25;77.22;;;3.20;99.90;;;;;;5071680;28;20035;-51
2022/01/17 00:28:06;;;;;;;127.63;79.05;;;3.30;99.90;;;;;;5065566;28;20028;-51
2022/01/17 00:30:32;;;;;;;116.03;75.22;;;3.20;99.90;;;;;;5072440;28;20480;-51
2022/01/17 00:32:57;;;;;;;121.28;76.32;;;3.20;99.90;;;;;;5071745;28;20048;-50
2022/01/17 00:35:24;;;;;;;125.25;80.40;;;3.20;99.90;;;;;;4995532;28;20090;-51
2022/01/17 00:37:51;;;;;;;121.57;77.47;;;3.20;99.90;;;;;;5070078;28;20029;-50
2022/01/17 00:40:18;;;;;;;118.45;75.80;;;3.20;99.90;;;;;;5071430;28;20035;-50
2022/01/17 00:42:44;;;;;;;115.32;74.82;;;3.20;99.90;;;;;;5072071;28;20108;-50
2022/01/17 00:45:13;;;;;;;114.20;71.55;;;3.20;99.90;;;;;;5036813;28;20469;-50
2022/01/17 00:47:40;;;;;;;118.53;74.18;;;3.10;99.90;;;;;;5019860;28;20131;-50
2022/01/17 00:50:07;;;;;;;114.82;72.70;;;3.00;99.90;;;;;;5070057;28;20024;-51
2022/01/17 00:52:32;;;;;;;105.80;71.13;;;3.00;99.90;;;;;;5015987;28;20373;-50
2022/01/17 00:54:58;;;;;;;118.05;75.32;;;2.90;99.90;;;;;;5075060;28;20035;-51
2022/01/17 00:57:24;;;;;;;109.38;71.60;;;2.90;99.90;;;;;;5024013;28;20036;-50
2022/01/17 00:59:50;;;;;;;105.57;69.32;;;2.90;99.90;;;;;;5055576;28;20123;-50
2022/01/17 01:02:16;;;;;;;110.78;66.20;;;2.70;99.90;;;;;;5074827;28;20025;-51
2022/01/17 01:04:42;;;;;;;108.15;67.80;;;2.70;99.90;;;;;;5074709;28;20044;-51
2022/01/17 01:07:08;;;;;;;98.55;66.50;;;2.70;99.90;;;;;;5074982;28;20028;-50
2022/01/17 01:09:43;;;;;;;100.68;61.45;;;2.70;99.90;;;;;;5075599;28;20357;-50
2022/01/17 01:12:09;;;;;;;97.10;65.88;;;2.70;99.90;;;;;;5040643;28;20044;-50
2022/01/17 01:14:34;;;;;;;104.90;64.57;;;2.70;99.90;;;;;;5019112;28;20044;-50
2022/01/17 01:17:07;;;;;;;98.75;63.45;;;2.70;99.90;;;;;;5018554;28;20047;-50
2022/01/17 01:19:40;;;;;;;94.65;62.72;;;2.90;99.90;;;;;;5074960;28;20107;-50
2022/01/17 01:27:53;;;;;;;87.85;57.53;;;3.00;99.90;;;;;;5074928;28;20055;-50
2022/01/17 01:30:21;;;;;;;92.25;60.05;;;2.80;99.90;;;;;;5074456;28;20036;-51
2022/01/17 01:32:54;;;;;;;92.18;57.28;;;2.80;99.90;;;;;;5073961;28;20512;-50
2022/01/17 01:35:22;;;;;;;82.43;48.80;;;2.90;99.90;;;;;;5041141;28;20128;-51
2022/01/17 01:37:49;;;;;;;87.45;56.35;;;2.90;99.90;;;;;;5072524;28;20103;-50
2022/01/17 01:40:18;;;;;;;82.78;53.72;;;2.90;99.90;;;;;;5071042;28;20071;-51
2022/01/17 01:42:45;;;;;;;83.93;52.45;;;2.90;99.90;;;;;;5074437;28;20036;-51
2022/01/17 01:45:13;;;;;;;80.93;52.65;;;2.90;99.90;;;;;;5074160;28;20032;-50
2022/01/17 01:47:40;;;;;;;77.72;50.05;;;2.90;99.90;;;;;;5073935;28;20571;-50
2022/01/17 01:50:08;;;;;;;79.78;54.42;;;3.00;99.90;;;;;;5028261;28;20130;-50
2022/01/17 01:52:34;;;;;;;80.43;53.17;;;3.00;99.90;;;;;;5017392;28;20040;-50
2022/01/17 01:55:00;;;;;;;79.50;50.97;;;3.00;99.90;;;;;;5073950;28;20471;-50
2022/01/17 01:57:26;;;;;;;75.40;48.42;;;3.00;99.90;;;;;;5074457;28;20119;-51
2022/01/17 01:59:52;;;;;;;78.90;51.50;;;2.90;99.90;;;;;;5073522;28;20020;-51
2022/01/17 02:02:18;;;;;;;75.07;46.08;;;2.80;99.90;;;;;;5039534;28;20067;-50
2022/01/17 02:04:44;;;;;;;81.97;52.83;;;2.90;99.90;;;;;;5076048;28;20024;-51
2022/01/17 02:07:11;;;;;;;79.78;52.55;;;2.80;99.90;;;;;;5076448;28;20025;-50
2022/01/17 02:09:38;;;;;;;76.18;50.13;;;2.80;99.90;;;;;;5073563;28;20400;-51
2022/01/17 02:12:04;;;;;;;81.93;53.35;;;2.80;99.90;;;;;;5073496;28;20032;-51
2022/01/17 02:14:30;;;;;;;77.60;49.22;;;2.70;99.90;;;;;;5002797;28;20037;-50
2022/01/17 02:17:01;;;;;;;71.55;49.75;;;2.60;99.90;;;;;;5074145;28;20028;-50
2022/01/17 02:19:28;;;;;;;79.75;51.83;;;2.30;99.90;;;;;;5073391;28;20443;-50
2022/01/17 02:21:54;;;;;;;69.68;38.83;;;2.50;99.90;;;;;;5035312;28;20411;-50
2022/01/17 02:24:21;;;;;;;80.95;56.17;;;2.60;99.90;;;;;;5074011;28;20040;-51
2022/01/17 02:26:50;;;;;;;76.35;46.08;;;2.70;99.90;;;;;;5070194;28;20085;-50
2022/01/17 02:29:16;;;;;;;79.05;46.72;;;2.80;99.90;;;;;;5038048;28;20044;-50
2022/01/17 02:31:43;;;;;;;52.03;32.75;;;2.70;99.90;;;;;;5016697;28;20128;-50
2022/01/17 02:34:09;;;;;;;86.65;59.85;;;2.70;99.90;;;;;;5073309;28;20491;-51
2022/01/17 02:36:35;;;;;;;67.20;45.10;;;2.80;99.90;;;;;;5073108;28;20644;-50
2022/01/17 02:39:03;;;;;;;74.60;47.08;;;2.80;99.90;;;;;;5073631;28;20116;-50
2022/01/17 02:41:31;;;;;;;85.90;51.83;;;2.80;99.90;;;;;;5073512;28;20060;-50
2022/01/17 02:44:00;;;;;;;85.95;53.35;;;2.90;99.90;;;;;;5072418;28;20078;-50
2022/01/17 02:46:26;;;;;;;83.22;53.25;;;2.90;99.90;;;;;;5072758;28;20477;-50
2022/01/17 02:48:53;;;;;;;78.25;50.38;;;3.00;99.90;;;;;;5023184;28;20139;-50
2022/01/17 02:51:19;;;;;;;84.13;54.65;;;3.00;99.90;;;;;;5072929;28;20035;-50
2022/01/17 02:53:45;;;;;;;82.68;51.67;;;3.10;99.90;;;;;;5072978;28;20111;-50
2022/01/17 02:56:11;;;;;;;73.70;45.00;;;3.10;99.90;;;;;;5073336;28;20021;-50
2022/01/17 02:58:37;;;;;;;73.85;48.53;;;3.00;99.90;;;;;;5037134;28;20051;-50
2022/01/17 03:01:09;;;;;;;79.47;53.72;;;3.00;99.90;;;;;;5072581;28;20056;-51
2022/01/17 03:03:35;;;;;;;75.95;50.20;;;3.20;99.90;;;;;;5072832;28;20062;-51
2022/01/17 03:06:02;;;;;;;85.50;54.97;;;3.10;99.90;;;;;;5072585;28;20032;-50
2022/01/17 03:08:30;;;;;;;85.22;51.60;;;3.10;99.90;;;;;;5073218;28;20033;-51
2022/01/17 03:10:56;;;;;;;74.28;48.72;;;3.20;99.90;;;;;;5068738;28;20032;-51
2022/01/17 03:13:25;;;;;;;78.03;52.35;;;3.20;99.90;;;;;;5016989;28;20177;-50
2022/01/17 03:15:57;;;;;;;78.60;48.85;;;3.20;99.90;;;;;;5072235;28;20035;-50
2022/01/17 03:18:26;;;;;;;77.00;49.70;;;3.10;99.90;;;;;;5072834;28;20123;-51
2022/01/17 03:20:51;;;;;;;88.97;55.53;;;3.30;99.90;;;;;;5072782;28;20163;-50
2022/01/17 03:23:17;;;;;;;80.90;51.72;;;3.40;99.90;;;;;;5034435;28;20127;-50
2022/01/17 03:25:43;;;;;;;78.43;51.20;;;3.30;99.90;;;;;;5072439;28;20093;-51
2022/01/17 03:28:09;;;;;;;76.07;48.42;;;3.30;99.90;;;;;;5072593;28;20024;-51
2022/01/17 03:30:36;;;;;;;92.07;61.63;;;3.30;99.90;;;;;;5072227;28;20135;-51
2022/01/17 03:33:08;;;;;;;78.85;51.25;;;3.40;99.90;;;;;;5072033;28;20523;-50
2022/01/17 03:35:36;;;;;;;72.35;47.85;;;3.50;99.90;;;;;;5073228;28;20109;-50
2022/01/17 03:38:02;;;;;;;67.47;46.40;;;3.50;99.90;;;;;;5072198;28;20050;-50
2022/01/17 03:40:28;;;;;;;77.22;49.20;;;3.60;99.90;;;;;;5072495;28;20553;-50
2022/01/17 03:42:54;;;;;;;68.97;47.58;;;3.70;99.90;;;;;;5072365;28;20032;-51
2022/01/17 03:45:19;;;;;;;73.40;46.92;;;3.70;99.90;;;;;;5072735;28;20024;-50
2022/01/17 03:47:50;;;;;;;67.65;43.08;;;3.70;99.90;;;;;;5071565;28;20057;-50
2022/01/17 03:50:19;;;;;;;63.00;44.25;;;3.90;99.90;;;;;;5072591;28;20040;-51
2022/01/17 03:52:45;;;;;;;66.78;45.20;;;3.90;99.90;;;;;;5068246;28;20040;-51
2022/01/17 03:55:13;;;;;;;64.07;41.83;;;3.90;99.90;;;;;;4999051;28;20029;-50
2022/01/17 03:57:39;;;;;;;64.88;45.00;;;4.00;99.90;;;;;;5067251;28;20028;-51
2022/01/17 04:00:07;;;;;;;60.83;43.08;;;4.00;99.90;;;;;;5071636;28;20056;-50
2022/01/17 04:02:32;;;;;;;67.82;46.10;;;4.20;99.90;;;;;;4999603;28;20395;-51
2022/01/17 04:04:58;;;;;;;61.58;43.85;;;4.20;99.90;;;;;;5014462;28;20037;-50
2022/01/17 04:07:24;;;;;;;62.17;42.92;;;4.30;99.90;;;;;;5072513;28;20033;-51
2022/01/17 04:09:51;;;;;;;69.40;44.75;;;4.40;99.90;;;;;;5071582;28;20052;-50
2022/01/17 04:12:17;;;;;;;61.40;42.63;;;4.40;99.90;;;;;;5035073;28;21103;-50
2022/01/17 04:14:42;;;;;;;67.70;43.20;;;4.30;99.90;;;;;;5071974;28;20033;-51
2022/01/17 04:17:08;;;;;;;60.25;42.55;;;4.40;99.90;;;;;;5071600;28;20124;-50
2022/01/17 04:19:34;;;;;;;65.53;43.90;;;4.40;99.90;;;;;;5020024;28;20040;-50
2022/01/17 04:22:01;;;;;;;62.58;42.05;;;4.50;99.90;;;;;;5072261;28;20081;-51
2022/01/17 04:24:27;;;;;;;60.20;41.55;;;4.60;99.90;;;;;;5075430;28;20039;-51
2022/01/17 04:26:53;;;;;;;56.72;39.45;;;4.70;99.90;;;;;;5036973;28;20032;-51
2022/01/17 04:29:20;;;;;;;60.20;40.80;;;4.70;99.90;;;;;;5006818;28;20042;-51
2022/01/17 04:31:46;;;;;;;54.22;39.17;;;4.70;99.90;;;;;;5007012;28;20486;-51
2022/01/17 04:34:12;;;;;;;54.10;38.72;;;4.70;99.90;;;;;;4986702;28;20187;-50
2022/01/17 04:36:38;;;;;;;57.22;38.35;;;4.70;99.90;;;;;;4960316;28;20124;-51
2022/01/17 04:39:04;;;;;;;55.72;40.30;;;4.70;99.90;;;;;;5006641;28;20049;-50
2022/01/17 04:41:40;;;;;;;58.75;40.20;;;4.70;99.90;;;;;;5001101;28;20034;-50
2022/01/17 04:46:50;;;;;;;58.92;38.20;;;4.90;99.90;;;;;;5010512;28;20080;-51
2022/01/17 04:49:16;;;;;;;48.05;35.65;;;4.90;99.90;;;;;;5013630;28;20069;-51
2022/01/17 04:51:42;;;;;;;48.72;34.28;;;4.90;99.90;;;;;;5006373;28;20058;-50
2022/01/17 04:54:38;;;;;;;51.40;34.75;;;5.00;99.90;;;;;;5004766;28;20034;-50
2022/01/17 04:57:02;;;;;;;49.72;33.90;;;5.10;99.90;;;;;;5013392;28;20509;-50
2022/01/17 04:59:28;;;;;;;51.58;34.53;;;5.10;99.90;;;;;;5015437;28;20104;-51
2022/01/17 05:01:54;;;;;;;48.53;34.78;;;5.10;99.90;;;;;;5074673;28;20024;-51
2022/01/17 05:04:19;;;;;;;45.92;32.97;;;5.20;99.90;;;;;;5074724;28;20033;-50
2022/01/17 05:06:45;;;;;;;43.97;31.58;;;5.10;99.90;;;;;;5075295;28;20064;-51
2022/01/17 05:09:11;;;;;;;42.90;31.33;;;5.10;99.90;;;;;;5006365;28;20055;-51
2022/01/17 05:11:37;;;;;;;44.83;30.83;;;5.20;99.90;;;;;;5074812;28;20650;-50
2022/01/17 05:14:02;;;;;;;52.60;36.35;;;4.70;99.90;;;;;;5074946;28;20166;-50
2022/01/17 05:16:36;;;;;;;38.80;27.55;;;4.60;99.90;;;;;;5074532;28;20038;-50
2022/01/17 05:21:46;;;;;;;41.03;27.90;;;5.00;99.90;;;;;;5029387;28;20430;-51
2022/01/17 05:24:12;;;;;;;42.10;28.88;;;5.10;99.90;;;;;;5056695;28;20041;-51
2022/01/17 05:26:38;;;;;;;42.92;28.67;;;5.10;99.90;;;;;;5074809;28;20158;-51
2022/01/17 05:29:03;;;;;;;38.67;28.50;;;5.20;99.90;;;;;;5006835;28;20377;-51
2022/01/17 05:31:29;;;;;;;41.63;28.23;;;5.30;99.90;;;;;;5073945;28;20041;-51
2022/01/17 05:33:55;;;;;;;39.33;26.50;;;5.30;99.90;;;;;;5073496;28;20076;-51
2022/01/17 05:36:21;;;;;;;42.28;29.52;;;5.30;99.90;;;;;;5074411;28;20039;-50
2022/01/17 05:38:46;;;;;;;41.88;27.67;;;5.20;99.90;;;;;;5034242;28;20044;-51
2022/01/17 05:41:12;;;;;;;46.92;30.10;;;5.10;99.90;;;;;;5038875;28;20045;-50
2022/01/17 05:43:38;;;;;;;43.45;31.45;;;4.90;99.90;;;;;;5022376;28;20131;-50
2022/01/17 05:46:04;;;;;;;41.85;30.20;;;5.00;99.90;;;;;;5074158;28;20956;-50
2022/01/17 05:48:29;;;;;;;43.45;30.33;;;5.00;99.90;;;;;;5073873;28;20045;-51
2022/01/17 05:50:55;;;;;;;46.15;30.40;;;5.10;99.90;;;;;;4986992;28;20043;-50
2022/01/17 05:53:21;;;;;;;52.38;34.03;;;5.10;99.90;;;;;;5073037;28;20107;-50
2022/01/17 05:55:47;;;;;;;52.30;34.08;;;5.00;99.90;;;;;;5073789;28;20431;-51
2022/01/17 05:58:13;;;;;;;44.13;30.85;;;4.50;99.90;;;;;;5074179;28;20056;-51
2022/01/17 06:00:39;;;;;;;48.95;31.75;;;4.50;99.90;;;;;;5074066;28;20032;-51
2022/01/17 06:03:04;;;;;;;50.97;32.35;;;3.90;99.90;;;;;;5072829;28;20036;-51
2022/01/17 06:05:30;;;;;;;49.40;32.83;;;3.60;99.90;;;;;;5073835;28;20468;-51
2022/01/17 06:07:56;;;;;;;43.13;29.38;;;3.50;99.90;;;;;;5022030;28;20039;-51
2022/01/17 06:10:22;;;;;;;70.85;45.67;;;3.40;99.90;;;;;;4981750;28;20124;-50
2022/01/17 06:12:48;;;;;;;72.63;47.13;;;3.70;99.90;;;;;;5072499;28;20056;-51
2022/01/17 06:15:14;;;;;;;56.45;38.40;;;4.00;99.90;;;;;;5021497;28;20377;-51
2022/01/17 06:17:39;;;;;;;56.22;37.35;;;4.20;99.90;;;;;;5021390;28;20040;-53
2022/01/17 06:20:06;;;;;;;404.42;168.68;;;4.20;99.90;;;;;;5019295;28;20048;-50
2022/01/17 06:22:32;;;;;;;182.25;92.70;;;4.30;99.90;;;;;;5071836;28;20044;-50
2022/01/17 06:24:57;;;;;;;114.05;68.60;;;4.30;99.90;;;;;;5054996;28;20045;-51
2022/01/17 06:27:23;;;;;;;98.00;63.63;;;4.30;99.90;;;;;;5070685;28;20024;-52
2022/01/17 06:29:49;;;;;;;95.55;51.55;;;4.50;99.90;;;;;;5019299;28;20037;-51
2022/01/17 06:32:15;;;;;;;68.85;41.70;;;4.70;99.90;;;;;;5006590;28;20041;-51
2022/01/17 06:34:40;;;;;;;66.45;42.13;;;4.70;99.90;;;;;;5016320;28;20416;-52
2022/01/17 06:37:06;;;;;;;58.03;37.00;;;4.80;99.90;;;;;;4979724;28;20037;-51
2022/01/17 06:39:33;;;;;;;58.13;37.63;;;4.80;99.90;;;;;;4963783;28;20041;-50
2022/01/17 06:41:59;;;;;;;109.30;83.28;;;4.90;99.90;;;;;;5028658;28;20041;-50
2022/01/17 06:44:25;;;;;;;46.05;30.13;;;4.80;99.90;;;;;;5028186;28;20644;-50
2022/01/17 06:46:51;;;;;;;50.95;34.85;;;4.90;99.90;;;;;;5027152;28;20064;-51
2022/01/17 06:49:16;;;;;;;63.00;45.03;;;5.40;99.90;;;;;;5032673;28;20040;-51
2022/01/17 06:51:42;;;;;;;50.65;30.95;;;;;;;;;;5015790;28;20038;-49
2022/01/17 06:54:08;;;;;;;53.15;33.00;;;9.00;99.90;;;;;;5022891;28;20093;-50
2022/01/17 06:56:34;;;;;;;47.53;29.85;;;10.70;99.90;;;;;;5028774;28;20045;-51
2022/01/17 06:59:00;;;;;;;74.03;39.67;;;12.40;99.90;;;;;;4992711;28;20041;-49
2022/01/17 07:01:25;;;;;;;41.80;26.02;;;13.70;99.90;;;;;;5029239;28;20035;-50
2022/01/17 07:03:51;;;;;;;52.63;29.25;;;14.80;99.00;;;;;;4986802;28;20072;-49
2022/01/17 07:06:17;;;;;;;50.47;28.77;;;15.60;94.00;;;;;;5015759;28;20087;-49
2022/01/17 07:08:45;;;;;;;48.75;28.73;;;16.10;91.30;;;;;;5071603;28;20538;-49
2022/01/17 07:11:12;;;;;;;53.38;32.00;;;16.50;90.20;;;;;;5071918;28;20044;-50
2022/01/17 07:13:37;;;;;;;28.17;18.98;;;17.10;95.60;;;;;;5065344;28;20028;-51
2022/01/17 07:16:04;;;;;;;22.83;16.48;;;18.00;88.10;;;;;;5036629;28;20028;-51
2022/01/17 07:18:30;;;;;;;31.45;22.40;;;;;;;;;;5072250;28;20044;-49
2022/01/17 07:20:56;;;;;;;36.25;25.58;;;15.60;97.20;;;;;;5072650;28;20028;-50
2022/01/17 07:23:22;;;;;;;29.95;20.02;;;14.20;82.70;;;;;;5072152;28;20051;-50
2022/01/17 07:25:48;;;;;;;29.60;20.27;;;14.10;83.70;;;;;;5071916;28;20032;-49
2022/01/17 07:28:13;;;;;;;24.10;18.70;;;15.70;85.40;;;;;;5016561;28;20590;-50
2022/01/17 07:30:40;;;;;;;32.88;22.30;;;;;;;;;;5034425;28;20049;-51
2022/01/17 07:33:06;;;;;;;29.70;23.63;;;17.60;83.90;;;;;;5053646;28;20496;-50
2022/01/17 07:35:33;;;;;;;52.25;34.38;;;17.60;82.10;;;;;;5072511;28;20464;-50
2022/01/17 07:37:59;;;;;;;185.15;92.55;;;17.80;81.60;;;;;;5072006;28;20082;-50
2022/01/17 07:40:25;;;;;;;176.25;91.03;;;19.30;80.10;;;;;;5071459;28;20028;-50
2022/01/17 07:42:51;;;;;;;155.00;84.90;;;19.20;76.60;;;;;;5070571;28;20171;-50
2022/01/17 07:45:19;;;;;;;70.55;50.47;;;19.20;77.50;;;;;;5072790;28;20369;-50
2022/01/17 07:48:12;;;;;;;67.20;46.72;;;20.00;76.50;;;;;;5071635;28;20056;-51
2022/01/17 07:50:32;;;;;;;82.45;54.95;;;18.80;75.70;;;;;;5069623;28;20037;-49
2022/01/17 07:52:58;;;;;;;231.90;135.13;;;17.30;75.70;;;;;;5018092;28;20051;-49
2022/01/17 07:55:23;;;;;;;251.07;147.45;;;16.30;76.50;;;;;;5019563;28;20048;-51
2022/01/17 07:57:49;;;;;;;297.20;163.40;;;16.00;78.00;;;;;;5021397;28;20094;-52
2022/01/17 08:00:22;;;;;;;298.80;162.38;;;16.10;81.00;;;;;;5008418;28;20041;-51
2022/01/17 08:02:50;;;;;;;169.77;108.97;;;17.20;79.90;;;;;;5075776;28;20559;-51
2022/01/17 08:05:16;;;;;;;115.20;91.18;;;17.80;79.70;;;;;;5027113;28;20046;-51
2022/01/17 08:07:43;;;;;;;194.88;136.15;;;19.40;81.90;;;;;;5075948;28;20024;-51
2022/01/17 08:10:12;;;;;;;121.03;83.88;;;19.40;75.30;;;;;;5075884;28;20036;-52
2022/01/17 08:12:43;;;;;;;87.00;65.38;;;18.40;74.00;;;;;;5074914;28;20036;-50
2022/01/17 08:15:10;;;;;;;90.47;71.25;;;18.10;74.40;;;;;;5068448;28;20036;-51
2022/01/17 08:17:36;;;;;;;71.43;54.70;;;19.20;75.40;;;;;;5075813;28;20036;-50
2022/01/17 08:20:04;;;;;;;64.45;53.05;;;19.60;73.90;;;;;;5075624;28;20032;-49
2022/01/17 08:22:30;;;;;;;58.03;47.92;;;20.00;73.50;;;;;;5024603;28;20042;-49
2022/01/17 08:24:55;;;;;;;63.63;46.25;;;21.30;72.80;;;;;;5074708;28;20029;-49
2022/01/17 08:27:21;;;;;;;47.35;39.63;;;21.10;69.90;;;;;;5075799;28;20032;-49
2022/01/17 08:29:47;;;;;;;49.30;42.05;;;20.80;71.60;;;;;;5075478;28;20035;-49
2022/01/17 08:32:13;;;;;;;72.75;57.72;;;19.60;69.20;;;;;;5069766;28;20043;-50
2022/01/17 08:34:38;;;;;;;133.65;107.80;;;18.20;70.80;;;;;;5074542;28;20024;-49
2022/01/17 08:37:05;;;;;;;96.20;68.95;;;17.60;72.80;;;;;;5021648;28;20044;-51
2022/01/17 08:39:31;;;;;;;80.43;53.17;;;17.80;74.30;;;;;;5074045;28;20043;-49
2022/01/17 08:41:58;;;;;;;64.85;55.13;;;18.90;74.30;;;;;;5072726;28;20412;-48
2022/01/17 08:44:25;;;;;;;45.88;41.08;;;20.20;72.70;;;;;;5077142;28;20123;-48
2022/01/17 08:46:51;;;;;;;56.58;44.15;;;21.20;75.50;;;;;;5070950;28;20051;-46
2022/01/17 08:49:18;;;;;;;47.17;38.90;;;21.20;73.10;;;;;;5072884;28;20166;-47
2022/01/17 08:51:44;;;;;;;35.90;31.98;;;;;;;;;;5074533;28;20024;-49
2022/01/17 08:54:10;;;;;;;36.15;31.70;;;21.20;67.20;;;;;;5075093;28;20431;-48
2022/01/17 08:56:35;;;;;;;34.25;28.80;;;20.70;68.30;;;;;;5075357;28;20090;-47
2022/01/17 08:59:02;;;;;;;32.25;29.02;;;20.70;68.80;;;;;;5073361;28;20020;-49
2022/01/17 09:01:28;;;;;;;28.48;25.75;;;22.40;68.60;;;;;;5027539;28;20435;-48
2022/01/17 09:03:55;;;;;;;25.40;22.90;;;22.80;70.40;;;;;;5038030;28;20072;-48
2022/01/17 09:06:23;;;;;;;28.15;25.55;;;;;;;;;;5037806;28;20420;-51
2022/01/17 09:08:49;;;;;;;30.00;27.33;;;;;;;;;;5076241;28;20056;-47
2022/01/17 09:11:15;;;;;;;28.73;26.20;;;;;;;;;;5073972;28;20031;-47
2022/01/17 09:13:42;;;;;;;25.13;22.75;;;;;;;;;;5074084;28;20028;-49
2022/01/17 09:16:08;;;;;;;23.88;21.58;;;25.80;63.10;;;;;;5049349;28;20070;-49
2022/01/17 09:18:34;;;;;;;27.38;24.98;;;26.00;70.60;;;;;;5073935;28;20028;-49
2022/01/17 09:21:00;;;;;;;26.70;24.38;;;26.00;61.60;;;;;;5079669;28;20032;-46
2022/01/17 09:23:27;;;;;;;29.38;26.98;;;;;;;;;;5038499;28;20079;-47
2022/01/17 09:25:53;;;;;;;21.40;19.55;;;26.50;60.70;;;;;;5071657;28;20436;-49
2022/01/17 09:28:20;;;;;;;19.27;17.67;;;;;;;;;;5072070;28;20125;-50
2022/01/17 09:30:46;;;;;;;32.55;30.50;;;27.00;59.90;;;;;;5070462;28;20025;-50
2022/01/17 09:33:12;;;;;;;13.63;12.18;;;26.70;59.10;;;;;;4987438;28;20063;-49
2022/01/17 09:35:37;;;;;;;12.63;11.48;;;26.80;59.60;;;;;;5039029;28;20422;-47
2022/01/17 09:38:04;;;;;;;25.13;23.45;;;26.80;59.10;;;;;;5072041;28;20111;-47
2022/01/17 09:40:29;;;;;;;28.02;26.45;;;26.80;58.10;;;;;;5039545;28;20349;-48
2022/01/17 09:42:58;;;;;;;19.27;18.15;;;26.40;57.60;;;;;;5073643;28;20039;-48
2022/01/17 09:45:24;;;;;;;27.48;25.85;;;26.40;57.60;;;;;;5074436;28;20116;-46
2022/01/17 09:47:50;;;;;;;28.60;26.35;;;25.90;57.60;;;;;;5074573;28;20177;-49
2022/01/17 09:50:21;;;;;;;18.73;16.65;;;26.00;57.80;;;;;;5074656;28;20422;-47
2022/01/17 09:52:52;;;;;;;49.88;46.90;;;25.60;57.50;;;;;;5074123;28;20350;-49
2022/01/17 09:55:28;;;;;;;32.50;30.38;;;25.90;57.50;;;;;;5074397;28;20044;-50
2022/01/17 09:58:13;;;;;;;47.38;44.53;;;25.90;58.00;;;;;;5074122;28;20021;-49
2022/01/17 10:00:42;;;;;;;32.97;31.10;;;26.00;57.40;;;;;;4988082;28;20036;-49
2022/01/17 10:03:13;;;;;;;39.78;37.05;;;26.40;57.50;;;;;;5074382;28;20400;-47
2022/01/17 10:05:39;;;;;;;81.10;76.63;;;26.40;57.60;;;;;;5037684;28;20531;-48
2022/01/17 10:08:10;;;;;;;35.05;32.22;;;25.90;56.30;;;;;;5069703;28;20110;-49
2022/01/17 10:10:42;;;;;;;18.27;16.48;;;25.40;57.40;;;;;;5038161;28;20032;-51
2022/01/17 10:13:20;;;;;;;;;;;25.90;58.10;;;;;;5067021;28;20389;-48
2022/01/17 10:16:11;;;;;;;46.20;43.80;;;25.70;58.20;;;;;;5038229;28;19909;-51
2022/01/17 10:18:46;;;;;;;32.05;30.20;;;25.90;57.20;;;;;;5073739;28;20028;-50
2022/01/17 10:21:35;;;;;;;30.60;28.73;;;25.60;57.00;;;;;;5068841;28;20036;-49
2022/01/17 10:24:15;;;;;;;84.32;79.75;;;25.70;57.00;;;;;;5072783;28;20037;-50
2022/01/17 10:35:13;;;;;;;35.95;34.05;;;26.40;57.80;;;;;;5073507;28;20039;-50
2022/01/17 10:37:39;;;;;;;15.52;14.50;;;26.10;57.30;;;;;;5022275;28;20028;-51
2022/01/17 10:40:12;;;;;;;14.60;13.70;;;25.70;56.00;;;;;;5070059;28;20443;-49
2022/01/17 10:42:42;;;;;;;;;;;25.80;56.60;;;;;;5024576;28;20080;-50
2022/01/17 10:45:13;;;;;;;18.70;17.65;;;26.00;77.50;;;;;;5073723;28;19912;-51
2022/01/17 10:47:43;;;;;;;18.23;16.52;;;25.90;57.20;;;;;;5021889;28;20044;-53
2022/01/17 10:50:12;;;;;;;27.67;25.77;;;25.90;58.00;;;;;;5074165;28;20480;-51
2022/01/17 10:53:03;;;;;;;21.58;19.77;;;25.70;56.60;;;;;;5073357;28;20055;-49
2022/01/17 10:55:31;;;;;;;16.85;15.43;;;25.80;56.90;;;;;;5020384;28;20120;-52
2022/01/17 10:58:07;;;;;;;13.95;12.88;;;25.70;58.00;;;;;;5022332;28;20100;-49
2022/01/17 11:00:37;;;;;;;63.20;15.88;;;25.10;56.30;;;;;;5013590;28;20069;-47
2022/01/17 11:03:09;;;;;;;16.02;15.02;;;25.20;57.60;;;;;;5011985;28;20033;-48
2022/01/17 11:05:39;;;;;;;27.25;24.70;;;25.40;58.00;;;;;;5010717;28;20044;-50
2022/01/17 11:08:06;;;;;;;27.97;18.60;;;24.70;58.00;;;;;;5009188;28;20029;-47
2022/01/17 11:10:39;;;;;;;19.13;18.13;;;24.40;57.80;;;;;;5010806;28;20057;-48
2022/01/17 11:13:09;;;;;;;16.10;15.13;;;24.30;57.00;;;;;;4978979;28;20125;-48
2022/01/17 11:15:37;;;;;;;6.10;5.50;;;24.50;56.80;;;;;;5011678;28;20490;-50
2022/01/17 11:18:16;;;;;;;4.53;3.55;;;24.10;57.10;;;;;;4962815;28;20100;-49
2022/01/17 11:20:43;;;;;;;5.40;4.75;;;23.40;57.10;;;;;;5011576;28;20047;-50
2022/01/17 11:23:09;;;;;;;52.92;8.38;;;22.70;58.00;;;;;;5011685;28;20061;-48
2022/01/17 11:25:37;;;;;;;7.20;6.65;;;22.00;59.40;;;;;;4976853;28;20077;-50
2022/01/17 11:28:06;;;;;;;9.10;8.15;;;22.10;59.40;;;;;;4964247;28;20052;-50
2022/01/17 11:30:34;;;;;;;5.13;4.50;;;22.40;59.70;;;;;;4978728;28;20046;-50
2022/01/17 11:33:03;;;;;;;6.88;5.72;;;22.60;58.90;;;;;;5053499;28;20044;-50
2022/01/17 11:35:31;;;;;;;4.65;4.22;;;22.20;58.70;;;;;;5037895;28;20044;-49
2022/01/17 11:37:59;;;;;;;6.60;4.03;;;22.30;59.10;;;;;;5021340;28;20549;-49
2022/01/17 11:40:30;;;;;;;4.07;3.50;;;22.00;58.60;;;;;;5037914;28;20048;-49
2022/01/17 11:42:56;;;;;;;7.07;5.85;;;21.40;58.60;;;;;;5072985;28;20056;-49
2022/01/17 11:45:22;;;;;;;4.60;3.63;;;21.20;58.90;;;;;;5037973;28;20044;-47
2022/01/17 11:48:05;;;;;;;4.07;2.50;;;20.90;60.40;;;;;;5072964;28;20056;-48
2022/01/17 11:50:43;;;;;;;16.85;3.30;;;19.90;59.70;;;;;;5021369;28;20048;-50
2022/01/17 11:53:12;;;;;;;5.03;2.63;;;19.30;60.60;;;;;;5073354;28;20423;-51
2022/01/17 11:58:22;;;;;;;5.53;5.07;;;18.40;62.00;;;;;;5073346;28;20468;-48
2022/01/17 12:00:57;;;;;;;5.40;5.00;;;18.60;62.50;;;;;;5073208;28;20123;-50
2022/01/17 12:03:25;;;;;;;11.98;11.05;;;18.50;62.60;;;;;;5037661;28;20060;-47
2022/01/17 12:05:53;;;;;;;11.32;10.52;;;18.90;62.80;;;;;;5073213;28;20036;-48
2022/01/17 12:08:22;;;;;;;8.35;7.80;;;19.10;94.30;;;;;;5073301;28;20028;-50
2022/01/17 12:10:51;;;;;;;10.43;9.40;;;19.40;77.70;;;;;;5037644;28;20040;-47
2022/01/17 12:13:22;;;;;;;7.22;6.63;;;19.60;63.70;;;;;;5037780;28;20044;-49
2022/01/17 12:16:17;;;;;;;7.13;6.53;;;20.00;64.30;;;;;;5073150;28;20410;-48
2022/01/17 12:18:50;;;;;;;6.25;5.00;;;19.60;62.50;;;;;;5072836;28;20036;-50
2022/01/17 12:21:28;;;;;;;7.30;5.70;;;19.80;65.20;;;;;;5072870;28;20044;-48
2022/01/17 12:24:16;;;;;;;11.18;6.35;;;19.50;64.00;;;;;;5072738;28;20044;-48
2022/01/17 12:26:44;;;;;;;8.43;6.13;;;19.30;61.50;;;;;;5073130;28;20036;-47
2022/01/17 12:29:10;;;;;;;16.70;6.00;;;19.20;63.00;;;;;;5037719;28;20075;-49
2022/01/17 12:31:48;;;;;;;7.13;4.32;;;19.20;70.80;;;;;;5072860;28;20078;-53
2022/01/17 12:34:14;;;;;;;10.60;4.68;;;19.10;76.10;;;;;;5072953;28;20082;-49
2022/01/17 12:36:41;;;;;;;9.95;4.18;;;18.80;62.90;;;;;;5072889;28;20368;-51
2022/01/17 12:39:20;;;;;;;5.65;3.33;;;18.70;62.90;;;;;;5072714;28;20033;-48
2022/01/17 12:41:49;;;;;;;11.45;4.40;;;18.50;61.90;;;;;;5072748;28;20119;-48
2022/01/17 12:44:28;;;;;;;13.02;6.78;;;18.40;77.60;;;;;;5074821;28;20120;-48
2022/01/17 12:46:57;;;;;;;16.42;9.82;;;18.10;62.60;;;;;;5075999;28;20041;-51
2022/01/17 12:49:23;;;;;;;7.32;4.68;;;;;;;;;;5075469;28;20032;-51
2022/01/17 12:51:51;;;;;;;8.70;4.20;;;18.00;63.00;;;;;;5076388;28;20025;-48
2022/01/17 12:54:29;;;;;;;6.32;3.92;;;18.00;63.30;;;;;;5076159;28;20025;-48
2022/01/17 12:56:58;;;;;;;8.70;4.93;;;17.90;63.10;;;;;;5076095;28;20082;-49
2022/01/17 12:59:25;;;;;;;8.93;5.22;;;17.80;64.50;;;;;;5057438;28;20522;-51
2022/01/17 13:01:54;;;;;;;7.65;5.10;;;17.80;64.10;;;;;;5057291;28;20055;-52
2022/01/17 13:04:21;;;;;;;7.05;4.70;;;17.60;64.60;;;;;;5076279;28;20040;-50
2022/01/17 13:06:51;;;;;;;12.55;7.60;;;17.70;65.60;;;;;;5075994;28;20032;-49